createdAt,value
2023-10-09T00:00:38.793Z,12.58
2023-10-09T00:01:32.558Z,12.57
2023-10-09T00:02:24.240Z,12.59
2023-10-09T00:03:15.756Z,12.57
2023-10-09T00:04:11.748Z,12.55
2023-10-09T00:05:12.736Z,12.53
2023-10-09T00:06:05.362Z,12.54
2023-10-09T00:07:00.581Z,12.56
2023-10-09T00:07:57.026Z,12.56
2023-10-09T00:08:52.035Z,12.55
2023-10-09T00:09:52.212Z,12.54
2023-10-09T00:10:49.777Z,12.54
2023-10-09T00:11:45.671Z,12.54
2023-10-09T00:12:37.092Z,12.54
2023-10-09T00:13:32.383Z,12.53
2023-10-09T00:14:39.741Z,12.52
2023-10-09T00:15:34.513Z,12.53
2023-10-09T00:16:36.281Z,12.52
2023-10-09T00:17:32.136Z,12.54
2023-10-09T00:18:30.262Z,12.54
2023-10-09T00:19:27.357Z,12.51
2023-10-09T00:20:20.904Z,12.49
2023-10-09T00:21:21.304Z,12.46
2023-10-09T00:22:21.246Z,12.46
2023-10-09T00:23:17.018Z,12.45
2023-10-09T00:24:14.548Z,12.45
2023-10-09T00:25:12.543Z,12.43
2023-10-09T00:26:17.282Z,12.42
2023-10-09T00:27:15.702Z,12.42
2023-10-09T00:28:07.124Z,12.40
2023-10-09T00:28:58.519Z,12.38
2023-10-09T00:29:49.991Z,12.33
2023-10-09T00:30:44.274Z,12.32
2023-10-09T00:31:36.764Z,12.27
2023-10-09T00:32:28.283Z,12.25
2023-10-09T00:33:23.217Z,12.24
2023-10-09T00:34:20.306Z,12.23
2023-10-09T00:35:34.973Z,12.19
2023-10-09T00:36:29.790Z,12.22
2023-10-09T00:37:23.943Z,12.21
2023-10-09T00:38:21.173Z,12.19
2023-10-09T00:39:19.226Z,12.19
2023-10-09T00:40:21.123Z,12.19
2023-10-09T00:41:20.344Z,12.16
2023-10-09T00:42:16.370Z,12.18
2023-10-09T00:43:14.299Z,12.17
2023-10-09T00:44:08.849Z,12.13
2023-10-09T00:45:08.715Z,12.11
2023-10-09T00:46:30.474Z,12.08
2023-10-09T00:47:22.372Z,12.01
2023-10-09T00:48:31.056Z,11.99
2023-10-09T00:49:23.348Z,11.97
2023-10-09T00:50:17.347Z,11.97
2023-10-09T00:51:19.536Z,11.94
2023-10-09T00:52:19.097Z,11.90
2023-10-09T00:53:13.663Z,11.86
2023-10-09T00:54:09.540Z,11.85
2023-10-09T00:55:09.120Z,11.85
2023-10-09T00:56:20.151Z,11.86
2023-10-09T00:57:14.632Z,11.83
2023-10-09T00:58:13.624Z,11.84
2023-10-09T00:59:09.815Z,11.82
2023-10-09T01:00:01.936Z,11.80
2023-10-09T01:00:54.622Z,11.82
2023-10-09T01:01:56.926Z,11.82
2023-10-09T01:03:03.009Z,11.83
2023-10-09T01:03:55.424Z,11.82
2023-10-09T01:04:47.150Z,11.79
2023-10-09T01:05:40.168Z,11.79
2023-10-09T01:06:34.576Z,11.79
2023-10-09T01:07:27.045Z,11.80
2023-10-09T01:08:45.857Z,11.77
2023-10-09T01:09:39.359Z,11.75
2023-10-09T01:10:51.373Z,11.71
2023-10-09T01:11:50.020Z,11.70
2023-10-09T01:12:45.345Z,11.70
2023-10-09T01:13:53.934Z,11.72
2023-10-09T01:14:46.182Z,11.73
2023-10-09T01:15:44.706Z,11.75
2023-10-09T01:16:36.228Z,11.77
2023-10-09T01:17:36.721Z,11.78
2023-10-09T01:18:37.052Z,11.80
2023-10-09T01:19:28.750Z,11.80
2023-10-09T01:20:29.309Z,11.79
2023-10-09T01:21:26.183Z,11.77
2023-10-09T01:22:22.471Z,11.76
2023-10-09T01:23:13.886Z,11.76
2023-10-09T01:24:08.796Z,11.79
2023-10-09T01:25:00.272Z,11.76
2023-10-09T01:25:52.227Z,11.79
2023-10-09T01:26:47.785Z,11.79
2023-10-09T01:27:41.257Z,11.79
2023-10-09T01:28:35.004Z,11.82
2023-10-09T01:29:30.581Z,11.79
2023-10-09T01:30:22.065Z,11.78
2023-10-09T01:31:13.633Z,11.81
2023-10-09T01:32:05.649Z,11.80
2023-10-09T01:33:00.204Z,11.80
2023-10-09T01:33:54.544Z,11.80
2023-10-09T01:34:49.482Z,11.83
2023-10-09T01:35:49.782Z,11.83
2023-10-09T01:36:42.583Z,11.82
2023-10-09T01:37:37.965Z,11.85
2023-10-09T01:38:41.948Z,11.86
2023-10-09T01:39:40.936Z,11.89
2023-10-09T01:40:38.689Z,11.91
2023-10-09T01:41:35.079Z,11.93
2023-10-09T01:42:35.794Z,11.96
2023-10-09T01:43:28.091Z,11.98
2023-10-09T01:44:20.045Z,11.99
2023-10-09T01:45:12.817Z,12.03
2023-10-09T01:46:06.127Z,12.06
2023-10-09T01:46:59.434Z,12.12
2023-10-09T01:47:55.309Z,12.12
2023-10-09T01:48:47.724Z,12.13
2023-10-09T01:49:42.604Z,12.16
2023-10-09T01:50:36.438Z,12.18
2023-10-09T01:51:34.379Z,12.19
2023-10-09T01:52:25.814Z,12.18
2023-10-09T01:53:20.106Z,12.19
2023-10-09T01:54:17.724Z,12.22
2023-10-09T01:55:13.798Z,12.22
2023-10-09T01:56:18.889Z,12.24
2023-10-09T01:57:13.762Z,12.29
2023-10-09T01:58:25.992Z,12.28
2023-10-09T01:59:17.667Z,12.28
2023-10-09T02:00:09.457Z,12.27
2023-10-09T02:01:05.775Z,12.28
2023-10-09T02:01:59.530Z,12.29
2023-10-09T02:02:51.555Z,12.29
2023-10-09T02:03:44.024Z,12.30
2023-10-09T02:04:35.841Z,12.31
2023-10-09T02:05:27.622Z,12.31
2023-10-09T02:06:29.266Z,12.31
2023-10-09T02:07:28.328Z,12.29
2023-10-09T02:08:27.739Z,12.31
2023-10-09T02:09:27.414Z,12.31
2023-10-09T02:10:26.587Z,12.31
2023-10-09T02:11:36.797Z,12.32
2023-10-09T02:12:34.471Z,12.35
2023-10-09T02:13:35.448Z,12.38
2023-10-09T02:14:27.722Z,12.40
2023-10-09T02:15:39.171Z,12.40
2023-10-09T02:16:30.717Z,12.40
2023-10-09T02:17:25.822Z,12.40
2023-10-09T02:18:40.207Z,12.40
2023-10-09T02:19:34.994Z,12.39
2023-10-09T02:20:31.881Z,12.40
2023-10-09T02:21:30.122Z,12.41
2023-10-09T02:22:23.022Z,12.44
2023-10-09T02:23:14.601Z,12.46
2023-10-09T02:24:08.835Z,12.48
2023-10-09T02:25:00.652Z,12.49
2023-10-09T02:25:58.468Z,12.51
2023-10-09T02:26:52.727Z,12.49
2023-10-09T02:27:54.503Z,12.49
2023-10-09T02:28:53.644Z,12.49
2023-10-09T02:29:45.292Z,12.48
2023-10-09T02:30:36.687Z,12.47
2023-10-09T02:31:41.577Z,12.47
2023-10-09T02:32:34.788Z,12.46
2023-10-09T02:33:29.259Z,12.45
2023-10-09T02:34:24.911Z,12.45
2023-10-09T02:35:37.648Z,12.45
2023-10-09T02:36:29.852Z,12.45
2023-10-09T02:37:26.098Z,12.44
2023-10-09T02:38:18.462Z,12.43
2023-10-09T02:39:40.568Z,12.43
2023-10-09T02:40:40.701Z,12.48
2023-10-09T02:41:35.328Z,12.47
2023-10-09T02:42:29.210Z,12.46
2023-10-09T02:43:20.756Z,12.45
2023-10-09T02:44:12.820Z,12.44
2023-10-09T02:45:08.070Z,12.42
2023-10-09T02:45:59.558Z,12.44
2023-10-09T02:46:51.688Z,12.44
2023-10-09T02:47:44.037Z,12.42
2023-10-09T02:48:37.558Z,12.42
2023-10-09T02:49:29.334Z,12.39
2023-10-09T02:50:21.723Z,12.40
2023-10-09T02:51:22.945Z,12.37
2023-10-09T02:52:19.718Z,12.38
2023-10-09T02:53:19.507Z,12.38
2023-10-09T02:54:35.824Z,12.39
2023-10-09T02:55:28.749Z,12.40
2023-10-09T02:56:28.114Z,12.39
2023-10-09T02:57:24.717Z,12.41
2023-10-09T02:58:22.000Z,12.43
2023-10-09T02:59:14.031Z,12.41
2023-10-09T03:00:30.778Z,12.41
2023-10-09T03:01:22.340Z,12.38
2023-10-09T03:02:13.936Z,12.38
2023-10-09T03:03:08.035Z,12.37
2023-10-09T03:04:03.722Z,12.36
2023-10-09T03:04:56.486Z,12.34
2023-10-09T03:05:50.882Z,12.35
2023-10-09T03:06:52.281Z,12.33
2023-10-09T03:07:45.337Z,12.33
2023-10-09T03:08:38.048Z,12.30
2023-10-09T03:09:29.977Z,12.30
2023-10-09T03:10:26.425Z,12.30
2023-10-09T03:11:18.180Z,12.30
2023-10-09T03:12:13.460Z,12.30
2023-10-09T03:13:06.493Z,12.30
2023-10-09T03:13:58.747Z,12.29
2023-10-09T03:14:50.139Z,12.29
2023-10-09T03:15:42.034Z,12.33
2023-10-09T03:16:34.100Z,12.35
2023-10-09T03:17:26.269Z,12.36
2023-10-09T03:18:17.732Z,12.36
2023-10-09T03:19:11.797Z,12.36
2023-10-09T03:20:13.735Z,12.33
2023-10-09T03:21:05.462Z,12.31
2023-10-09T03:21:59.982Z,12.32
2023-10-09T03:22:51.451Z,12.31
2023-10-09T03:23:44.831Z,12.31
2023-10-09T03:24:36.690Z,12.30
2023-10-09T03:25:29.293Z,12.32
2023-10-09T03:26:22.298Z,12.31
2023-10-09T03:27:15.232Z,12.31
2023-10-09T03:28:07.832Z,12.32
2023-10-09T03:29:02.151Z,12.32
2023-10-09T03:29:54.767Z,12.31
2023-10-09T03:30:48.570Z,12.32
2023-10-09T03:31:40.081Z,12.33
2023-10-09T03:32:31.579Z,12.33
2023-10-09T03:33:24.273Z,12.34
2023-10-09T03:34:16.081Z,12.34
2023-10-09T03:35:09.297Z,12.33
2023-10-09T03:36:01.546Z,12.34
2023-10-09T03:37:04.634Z,12.33
2023-10-09T03:38:01.372Z,12.33
2023-10-09T03:38:58.991Z,12.33
2023-10-09T03:39:55.916Z,12.32
2023-10-09T03:40:49.075Z,12.32
2023-10-09T03:41:43.033Z,12.34
2023-10-09T03:42:37.308Z,12.37
2023-10-09T03:43:33.405Z,12.39
2023-10-09T03:44:25.415Z,12.38
2023-10-09T03:45:26.073Z,12.40
2023-10-09T03:46:34.344Z,12.40
2023-10-09T03:47:28.510Z,12.40
2023-10-09T03:48:27.237Z,12.40
2023-10-09T03:49:24.383Z,12.39
2023-10-09T03:50:36.255Z,12.39
2023-10-09T03:51:30.629Z,12.40
2023-10-09T03:52:26.406Z,12.38
2023-10-09T03:53:18.965Z,12.38
2023-10-09T03:54:10.470Z,12.40
2023-10-09T03:55:02.017Z,12.39
2023-10-09T03:55:53.464Z,12.38
2023-10-09T03:56:45.675Z,12.38
2023-10-09T03:57:37.572Z,12.38
2023-10-09T03:58:32.815Z,12.38
2023-10-09T03:59:27.043Z,12.40
2023-10-09T04:00:27.808Z,12.40
2023-10-09T04:01:28.547Z,12.40
2023-10-09T04:02:23.013Z,12.40
2023-10-09T04:03:16.219Z,12.39
2023-10-09T04:04:11.471Z,12.38
2023-10-09T04:05:03.349Z,12.38
2023-10-09T04:05:54.907Z,12.40
2023-10-09T04:06:47.533Z,12.41
2023-10-09T04:07:38.933Z,12.42
2023-10-09T04:08:31.067Z,12.42
2023-10-09T04:09:22.534Z,12.43
2023-10-09T04:10:32.797Z,12.43
2023-10-09T04:11:24.219Z,12.45
2023-10-09T04:12:22.106Z,12.45
2023-10-09T04:13:18.518Z,12.46
2023-10-09T04:14:22.676Z,12.47
2023-10-09T04:15:16.720Z,12.48
2023-10-09T04:16:12.271Z,12.51
2023-10-09T04:17:30.051Z,12.52
2023-10-09T04:18:29.019Z,12.48
2023-10-09T04:19:23.170Z,12.49
2023-10-09T04:20:20.974Z,12.50
2023-10-09T04:21:35.018Z,12.51
2023-10-09T04:22:27.443Z,12.52
2023-10-09T04:23:34.629Z,12.53
2023-10-09T04:24:26.264Z,12.53
2023-10-09T04:25:29.463Z,12.54
2023-10-09T04:26:21.931Z,12.55
2023-10-09T04:27:14.059Z,12.55
2023-10-09T04:28:20.102Z,12.53
2023-10-09T04:29:24.768Z,12.54
2023-10-09T04:30:17.059Z,12.54
2023-10-09T04:31:08.814Z,12.55
2023-10-09T04:32:01.930Z,12.55
2023-10-09T04:32:56.452Z,12.55
2023-10-09T04:34:21.225Z,12.56
2023-10-09T04:35:25.855Z,12.56
2023-10-09T04:36:29.887Z,12.57
2023-10-09T04:37:37.735Z,12.57
2023-10-09T04:38:35.357Z,12.56
2023-10-09T04:39:30.286Z,12.58
2023-10-09T04:40:39.732Z,12.57
2023-10-09T04:41:43.457Z,12.57
2023-10-09T04:42:37.745Z,12.56
2023-10-09T04:43:29.231Z,12.56
2023-10-09T04:44:23.976Z,12.56
2023-10-09T04:45:15.613Z,12.57
2023-10-09T04:46:08.942Z,12.59
2023-10-09T04:47:15.874Z,12.59
2023-10-09T04:48:08.085Z,12.61
2023-10-09T04:49:16.917Z,12.62
2023-10-09T04:50:12.962Z,12.63
2023-10-09T04:51:23.387Z,12.64
2023-10-09T04:52:31.869Z,12.65
2023-10-09T04:53:23.813Z,12.63
2023-10-09T04:54:15.421Z,12.64
2023-10-09T04:55:08.709Z,12.64
2023-10-09T04:56:05.899Z,12.63
2023-10-09T04:56:57.317Z,12.62
2023-10-09T04:58:02.611Z,12.61
2023-10-09T04:59:04.496Z,12.62
2023-10-09T04:59:59.464Z,12.64
2023-10-09T05:01:00.506Z,12.63
2023-10-09T05:02:06.319Z,12.62
2023-10-09T05:03:05.622Z,12.62
2023-10-09T05:04:04.097Z,12.63
2023-10-09T05:05:15.599Z,12.65
2023-10-09T05:06:22.110Z,12.64
2023-10-09T05:07:37.718Z,12.63
2023-10-09T05:08:29.260Z,12.62
2023-10-09T05:09:22.090Z,12.61
2023-10-09T05:10:18.877Z,12.60
2023-10-09T05:11:18.175Z,12.59
2023-10-09T05:12:16.551Z,12.58
2023-10-09T05:13:14.745Z,12.57
2023-10-09T05:14:15.128Z,12.57
2023-10-09T05:15:10.146Z,12.59
2023-10-09T05:16:03.902Z,12.62
2023-10-09T05:16:56.208Z,12.61
2023-10-09T05:17:57.331Z,12.59
2023-10-09T05:19:09.110Z,12.58
2023-10-09T05:20:20.464Z,12.59
2023-10-09T05:21:36.708Z,12.57
2023-10-09T05:22:37.240Z,12.56
2023-10-09T05:23:28.665Z,12.54
2023-10-09T05:24:20.381Z,12.55
2023-10-09T05:25:17.238Z,12.55
2023-10-09T05:26:28.703Z,12.55
2023-10-09T05:27:20.135Z,12.56
2023-10-09T05:28:32.405Z,12.55
2023-10-09T05:29:49.553Z,12.56
2023-10-09T05:30:42.770Z,12.53
2023-10-09T05:31:56.599Z,12.53
2023-10-09T05:32:49.442Z,12.51
2023-10-09T05:33:46.128Z,12.49
2023-10-09T05:34:56.172Z,12.50
2023-10-09T05:36:06.363Z,12.47
2023-10-09T05:37:17.956Z,12.45
2023-10-09T05:38:24.920Z,12.44
2023-10-09T05:39:23.215Z,12.42
2023-10-09T05:40:17.842Z,12.43
2023-10-09T05:41:27.891Z,12.43
2023-10-09T05:42:19.364Z,12.44
2023-10-09T05:43:31.151Z,12.44
2023-10-09T05:44:41.237Z,12.43
2023-10-09T05:45:51.077Z,12.42
2023-10-09T05:47:02.587Z,12.42
2023-10-09T05:47:55.075Z,12.40
2023-10-09T05:48:55.535Z,12.41
2023-10-09T05:49:47.658Z,12.40
2023-10-09T05:51:00.511Z,12.42
2023-10-09T05:52:06.566Z,12.44
2023-10-09T05:53:31.010Z,12.45
2023-10-09T05:54:45.177Z,12.48
2023-10-09T05:55:55.025Z,12.49
2023-10-09T05:57:21.433Z,12.52
2023-10-09T05:58:31.846Z,12.53
2023-10-09T05:59:41.799Z,12.51
2023-10-09T06:00:51.743Z,12.52
2023-10-09T06:02:01.768Z,12.54
2023-10-09T06:03:11.922Z,12.56
2023-10-09T06:04:16.509Z,12.57
2023-10-09T06:05:28.503Z,12.59
2023-10-09T06:06:35.111Z,12.61
2023-10-09T06:07:46.584Z,12.62
2023-10-09T06:08:43.909Z,12.63
2023-10-09T06:09:56.735Z,12.63
2023-10-09T06:11:06.486Z,12.65
2023-10-09T06:12:18.098Z,12.68
2023-10-09T06:13:29.865Z,12.70
2023-10-09T06:14:31.368Z,12.70
2023-10-09T06:15:43.150Z,12.71
2023-10-09T06:16:47.494Z,12.75
2023-10-09T06:17:45.063Z,12.78
2023-10-09T06:18:36.824Z,12.79
2023-10-09T06:19:32.845Z,12.80
2023-10-09T06:20:44.255Z,12.83
2023-10-09T06:21:54.449Z,12.85
2023-10-09T06:22:57.798Z,12.86
2023-10-09T06:24:07.700Z,12.87
2023-10-09T06:25:09.540Z,12.88
2023-10-09T06:26:21.939Z,12.90
2023-10-09T06:27:13.714Z,12.90
2023-10-09T06:28:05.537Z,12.93
2023-10-09T06:29:15.726Z,12.96
2023-10-09T06:30:20.157Z,12.97
2023-10-09T06:31:29.815Z,12.99
2023-10-09T06:32:27.239Z,13.02
2023-10-09T06:33:30.294Z,13.04
2023-10-09T06:34:25.808Z,13.05
2023-10-09T06:35:19.686Z,13.06
2023-10-09T06:36:18.886Z,13.07
2023-10-09T06:37:25.189Z,13.10
2023-10-09T06:38:34.794Z,13.12
2023-10-09T06:39:44.637Z,13.13
2023-10-09T06:40:53.792Z,13.15
2023-10-09T06:41:46.312Z,13.17
2023-10-09T06:42:40.956Z,13.18
2023-10-09T06:43:37.594Z,13.21
2023-10-09T06:44:49.062Z,13.24
2023-10-09T06:45:46.665Z,13.28
2023-10-09T06:46:44.875Z,13.30
2023-10-09T06:47:43.216Z,13.34
2023-10-09T06:48:34.810Z,13.39
2023-10-09T06:49:34.385Z,13.44
2023-10-09T06:50:26.192Z,13.50
2023-10-09T06:51:26.793Z,13.55
2023-10-09T06:52:38.251Z,13.65
2023-10-09T06:53:49.593Z,13.75
2023-10-09T06:54:50.343Z,13.81
2023-10-09T06:55:52.152Z,13.87
2023-10-09T06:56:55.542Z,13.90
2023-10-09T06:57:50.219Z,13.95
2023-10-09T06:58:48.533Z,13.99
2023-10-09T07:00:02.901Z,14.04
2023-10-09T07:01:20.308Z,14.08
2023-10-09T07:02:26.983Z,14.06
2023-10-09T07:03:21.090Z,14.10
2023-10-09T07:04:20.789Z,14.11
2023-10-09T07:05:18.470Z,14.08
2023-10-09T07:06:11.306Z,14.09
2023-10-09T07:07:08.435Z,14.09
2023-10-09T07:08:19.779Z,14.10
2023-10-09T07:09:11.303Z,14.11
2023-10-09T07:10:21.405Z,14.13
2023-10-09T07:11:22.856Z,14.14
2023-10-09T07:12:21.673Z,14.15
2023-10-09T07:13:13.774Z,14.16
2023-10-09T07:14:07.744Z,14.15
2023-10-09T07:15:06.617Z,14.16
2023-10-09T07:16:16.665Z,14.16
2023-10-09T07:17:29.058Z,14.15
2023-10-09T07:18:20.861Z,14.17
2023-10-09T07:19:27.024Z,14.20
2023-10-09T07:20:37.982Z,14.19
2023-10-09T07:21:29.486Z,14.20
2023-10-09T07:22:21.469Z,14.22
2023-10-09T07:23:15.623Z,14.24
2023-10-09T07:24:16.298Z,14.27
2023-10-09T07:25:28.805Z,14.29
2023-10-09T07:26:24.177Z,14.33
2023-10-09T07:27:16.776Z,14.35
2023-10-09T07:28:19.672Z,14.38
2023-10-09T07:29:17.382Z,14.40
2023-10-09T07:30:30.334Z,14.41
2023-10-09T07:31:25.399Z,14.45
2023-10-09T07:32:24.317Z,14.47
2023-10-09T07:33:17.007Z,14.48
2023-10-09T07:34:28.461Z,14.50
2023-10-09T07:35:39.853Z,14.56
2023-10-09T07:36:35.597Z,14.63
2023-10-09T07:37:32.077Z,14.70
2023-10-09T07:38:36.275Z,14.71
2023-10-09T07:39:35.764Z,14.79
2023-10-09T07:40:32.651Z,14.89
2023-10-09T07:41:24.057Z,15.03
2023-10-09T07:42:27.568Z,15.10
2023-10-09T07:43:19.927Z,15.20
2023-10-09T07:44:20.167Z,15.28
2023-10-09T07:45:21.303Z,15.31
2023-10-09T07:46:53.056Z,15.35
2023-10-09T07:48:02.055Z,15.46
2023-10-09T07:48:54.494Z,15.54
2023-10-09T07:49:52.430Z,15.58
2023-10-09T07:50:49.680Z,15.64
2023-10-09T07:51:47.919Z,15.69
2023-10-09T07:52:45.987Z,15.73
2023-10-09T07:53:44.426Z,15.76
2023-10-09T07:54:48.171Z,15.77
2023-10-09T07:55:46.752Z,15.79
2023-10-09T07:56:42.263Z,15.78
2023-10-09T07:57:40.002Z,15.79
2023-10-09T07:58:32.453Z,15.81
2023-10-09T07:59:24.929Z,15.83
2023-10-09T08:00:35.061Z,15.83
2023-10-09T08:01:37.074Z,15.87
2023-10-09T08:02:35.224Z,15.88
2023-10-09T08:03:26.949Z,15.89
2023-10-09T08:04:49.141Z,15.86
2023-10-09T08:05:45.867Z,15.88
2023-10-09T08:07:04.492Z,15.92
2023-10-09T08:08:31.077Z,15.95
2023-10-09T08:09:47.349Z,16.03
2023-10-09T08:10:59.265Z,16.06
2023-10-09T08:12:26.216Z,16.09
2023-10-09T08:13:43.889Z,16.14
2023-10-09T08:14:35.624Z,16.21
2023-10-09T08:15:52.400Z,16.22
2023-10-09T08:16:44.213Z,16.27
2023-10-09T08:17:38.449Z,16.29
2023-10-09T08:18:30.122Z,16.33
2023-10-09T08:19:33.527Z,16.38
2023-10-09T08:20:28.908Z,16.43
2023-10-09T08:21:21.985Z,16.48
2023-10-09T08:22:26.269Z,16.49
2023-10-09T08:23:30.730Z,16.47
2023-10-09T08:24:42.302Z,16.40
2023-10-09T08:25:34.242Z,16.45
2023-10-09T08:26:33.430Z,16.51
2023-10-09T08:27:48.079Z,16.55
2023-10-09T08:28:43.627Z,16.55
2023-10-09T08:29:35.605Z,16.55
2023-10-09T08:30:27.481Z,16.58
2023-10-09T08:31:20.469Z,16.60
2023-10-09T08:34:15.866Z,16.62
2023-10-09T08:34:33.696Z,16.65
2023-10-09T08:35:50.150Z,16.65
2023-10-09T08:36:44.773Z,16.72
2023-10-09T08:37:36.573Z,16.72
2023-10-09T08:38:34.074Z,16.74
2023-10-09T08:39:30.933Z,16.77
2023-10-09T08:40:22.751Z,16.79
2023-10-09T08:41:18.172Z,16.82
2023-10-09T08:42:11.918Z,16.87
2023-10-09T08:43:17.282Z,16.91
2023-10-09T08:44:15.992Z,17.03
2023-10-09T08:45:08.883Z,17.13
2023-10-09T08:46:02.693Z,17.19
2023-10-09T08:46:56.306Z,17.26
2023-10-09T08:47:50.616Z,17.33
2023-10-09T08:48:42.647Z,17.35
2023-10-09T08:49:36.854Z,17.38
2023-10-09T08:50:29.919Z,17.41
2023-10-09T08:51:23.096Z,17.47
2023-10-09T08:52:14.698Z,17.53
2023-10-09T08:53:06.366Z,17.61
2023-10-09T08:53:58.081Z,17.64
2023-10-09T08:54:49.593Z,17.70
2023-10-09T08:55:42.532Z,17.75
2023-10-09T08:56:34.142Z,17.81
2023-10-09T08:57:25.696Z,17.83
2023-10-09T08:58:32.021Z,17.86
2023-10-09T08:59:23.570Z,17.89
2023-10-09T09:00:24.605Z,17.90
2023-10-09T09:01:22.663Z,17.95
2023-10-09T09:02:16.310Z,17.99
2023-10-09T09:03:10.700Z,18.03
2023-10-09T09:04:03.778Z,18.04
2023-10-09T09:04:55.439Z,17.97
2023-10-09T09:05:50.882Z,18.04
2023-10-09T09:06:42.729Z,18.11
2023-10-09T09:07:40.040Z,18.14
2023-10-09T09:08:37.206Z,18.17
2023-10-09T09:09:31.735Z,18.17
2023-10-09T09:10:36.324Z,18.13
2023-10-09T09:11:31.850Z,18.13
2023-10-09T09:12:25.404Z,18.18
2023-10-09T09:13:19.624Z,18.26
2023-10-09T09:14:19.937Z,18.32
2023-10-09T09:15:23.456Z,18.40
2023-10-09T09:16:23.289Z,18.47
2023-10-09T09:17:28.733Z,18.54
2023-10-09T09:18:20.672Z,18.53
2023-10-09T09:19:18.998Z,18.53
2023-10-09T09:20:24.088Z,18.56
2023-10-09T09:21:23.442Z,18.60
2023-10-09T09:22:15.310Z,18.62
2023-10-09T09:23:13.325Z,18.65
2023-10-09T09:24:26.937Z,18.65
2023-10-09T09:25:18.584Z,18.61
2023-10-09T09:26:13.021Z,18.67
2023-10-09T09:27:19.342Z,18.74
2023-10-09T09:28:20.609Z,18.75
2023-10-09T09:29:15.066Z,18.84
2023-10-09T09:30:24.804Z,18.89
2023-10-09T09:31:23.193Z,18.96
2023-10-09T09:32:19.509Z,18.99
2023-10-09T09:33:40.656Z,18.99
2023-10-09T09:34:49.481Z,19.08
2023-10-09T09:35:59.336Z,19.10
2023-10-09T09:37:00.252Z,19.12
2023-10-09T09:37:55.892Z,19.05
2023-10-09T09:38:52.274Z,19.06
2023-10-09T09:39:53.253Z,19.04
2023-10-09T09:40:55.066Z,19.02
2023-10-09T09:41:48.262Z,19.02
2023-10-09T09:42:45.899Z,19.02
2023-10-09T09:43:41.605Z,19.05
2023-10-09T09:44:34.755Z,18.95
2023-10-09T09:45:27.593Z,18.90
2023-10-09T09:46:19.445Z,18.91
2023-10-09T09:47:17.547Z,18.92
2023-10-09T09:48:12.427Z,18.94
2023-10-09T09:49:17.660Z,18.94
2023-10-09T09:50:13.732Z,18.97
2023-10-09T09:51:07.107Z,19.00
2023-10-09T09:52:02.257Z,19.08
2023-10-09T09:52:55.444Z,19.20
2023-10-09T09:53:51.480Z,19.34
2023-10-09T09:54:44.079Z,19.46
2023-10-09T09:55:43.220Z,19.52
2023-10-09T09:56:40.063Z,19.66
2023-10-09T09:57:38.558Z,19.72
2023-10-09T09:58:45.357Z,19.84
2023-10-09T09:59:50.996Z,19.94
2023-10-09T10:00:42.643Z,20.06
2023-10-09T10:01:41.084Z,20.13
2023-10-09T10:02:39.113Z,20.11
2023-10-09T10:03:44.597Z,20.19
2023-10-09T10:04:40.725Z,20.29
2023-10-09T10:05:35.273Z,20.36
2023-10-09T10:06:33.408Z,20.46
2023-10-09T10:07:31.312Z,20.52
2023-10-09T10:08:32.555Z,20.54
2023-10-09T10:09:42.570Z,20.47
2023-10-09T10:10:39.993Z,20.56
2023-10-09T10:11:52.928Z,20.51
2023-10-09T10:13:01.160Z,20.47
2023-10-09T10:13:53.502Z,20.53
2023-10-09T10:15:00.884Z,20.64
2023-10-09T10:16:01.459Z,20.54
2023-10-09T10:17:03.673Z,20.61
2023-10-09T10:18:00.039Z,20.70
2023-10-09T10:19:15.991Z,20.80
2023-10-09T10:20:20.144Z,20.79
2023-10-09T10:21:19.676Z,20.82
2023-10-09T10:22:34.129Z,20.84
2023-10-09T10:23:33.460Z,20.87
2023-10-09T10:24:37.182Z,20.86
2023-10-09T10:25:37.119Z,20.98
2023-10-09T10:26:28.808Z,21.00
2023-10-09T10:27:25.289Z,21.02
2023-10-09T10:28:30.507Z,21.08
2023-10-09T10:29:24.864Z,21.12
2023-10-09T10:30:37.665Z,21.18
2023-10-09T10:32:01.733Z,21.22
2023-10-09T10:32:53.968Z,21.18
2023-10-09T10:33:59.436Z,21.29
2023-10-09T10:34:57.538Z,21.34
2023-10-09T10:35:59.087Z,21.31
2023-10-09T10:36:59.185Z,21.32
2023-10-09T10:38:01.604Z,21.41
2023-10-09T10:39:20.473Z,21.29
2023-10-09T10:40:21.072Z,21.27
2023-10-09T10:41:18.368Z,21.30
2023-10-09T10:42:33.334Z,21.46
2023-10-09T10:43:43.979Z,21.45
2023-10-09T10:44:37.805Z,21.53
2023-10-09T10:45:36.471Z,21.50
2023-10-09T10:46:39.121Z,21.57
2023-10-09T10:47:36.101Z,21.63
2023-10-09T10:48:38.721Z,21.69
2023-10-09T10:49:37.818Z,21.74
2023-10-09T10:50:32.317Z,21.74
2023-10-09T10:51:23.737Z,21.79
2023-10-09T10:52:23.180Z,21.84
2023-10-09T10:53:18.291Z,21.85
2023-10-09T10:54:29.325Z,21.83
2023-10-09T10:55:32.905Z,21.79
2023-10-09T10:56:37.024Z,21.64
2023-10-09T10:57:38.102Z,21.67
2023-10-09T10:58:38.631Z,21.68
2023-10-09T10:59:42.696Z,21.53
2023-10-09T11:00:52.760Z,21.61
2023-10-09T11:01:53.238Z,21.59
2023-10-09T11:02:49.078Z,21.68
2023-10-09T11:03:56.930Z,21.76
2023-10-09T11:05:11.696Z,21.81
2023-10-09T11:06:16.176Z,21.65
2023-10-09T11:07:10.689Z,21.73
2023-10-09T11:08:10.681Z,21.78
2023-10-09T11:09:10.774Z,21.80
2023-10-09T11:10:04.886Z,21.75
2023-10-09T11:11:17.539Z,21.74
2023-10-09T11:12:23.201Z,21.72
2023-10-09T11:13:31.927Z,21.61
2023-10-09T11:14:26.595Z,21.65
2023-10-09T11:15:24.033Z,21.72
2023-10-09T11:16:15.673Z,21.64
2023-10-09T11:17:24.965Z,21.54
2023-10-09T11:18:20.087Z,21.57
2023-10-09T11:19:33.984Z,21.61
2023-10-09T11:20:33.321Z,21.67
2023-10-09T11:21:31.962Z,21.72
2023-10-09T11:22:29.756Z,21.71
2023-10-09T11:23:43.213Z,21.75
2023-10-09T11:24:36.286Z,21.79
2023-10-09T11:25:27.927Z,21.75
2023-10-09T11:26:30.072Z,21.80
2023-10-09T11:27:25.696Z,21.75
2023-10-09T11:28:43.284Z,21.69
2023-10-09T11:29:45.672Z,21.67
2023-10-09T11:30:41.342Z,21.68
2023-10-09T11:31:34.928Z,21.67
2023-10-09T11:32:27.943Z,21.66
2023-10-09T11:33:20.312Z,21.75
2023-10-09T11:34:33.042Z,21.80
2023-10-09T11:35:30.171Z,21.87
2023-10-09T11:36:32.539Z,21.85
2023-10-09T11:37:31.224Z,21.77
2023-10-09T11:38:24.053Z,21.88
2023-10-09T11:39:51.309Z,22.03
2023-10-09T11:40:54.769Z,22.06
2023-10-09T11:41:50.515Z,22.07
2023-10-09T11:42:50.167Z,22.01
2023-10-09T11:43:52.339Z,22.30
2023-10-09T11:44:56.141Z,22.21
2023-10-09T11:45:57.146Z,22.17
2023-10-09T11:47:19.972Z,22.14
2023-10-09T11:48:34.652Z,22.20
2023-10-09T11:49:44.904Z,22.16
2023-10-09T11:51:16.434Z,22.11
2023-10-09T11:52:14.971Z,22.08
2023-10-09T11:53:10.566Z,22.02
2023-10-09T11:54:02.153Z,22.03
2023-10-09T11:54:57.520Z,22.07
2023-10-09T11:55:50.489Z,22.10
2023-10-09T11:56:43.823Z,22.05
2023-10-09T11:57:36.157Z,21.82
2023-10-09T11:58:27.626Z,21.80
2023-10-09T11:59:19.141Z,21.67
2023-10-09T12:00:30.213Z,21.69
2023-10-09T12:01:22.601Z,21.81
2023-10-09T12:02:14.556Z,21.75
2023-10-09T12:03:07.104Z,21.82
2023-10-09T12:03:58.635Z,21.97
2023-10-09T12:04:50.186Z,22.06
2023-10-09T12:05:45.326Z,22.12
2023-10-09T12:06:36.881Z,22.09
2023-10-09T12:07:28.844Z,21.92
2023-10-09T12:08:23.341Z,22.00
2023-10-09T12:09:24.564Z,21.84
2023-10-09T12:10:16.068Z,21.95
2023-10-09T12:11:12.112Z,21.71
2023-10-09T12:12:05.249Z,21.60
2023-10-09T12:13:00.258Z,21.50
2023-10-09T12:13:57.347Z,21.60
2023-10-09T12:14:52.569Z,21.57
2023-10-09T12:15:47.666Z,21.61
2023-10-09T12:16:45.482Z,21.66
2023-10-09T12:17:37.378Z,21.68
2023-10-09T12:18:29.434Z,21.72
2023-10-09T12:19:21.068Z,21.70
2023-10-09T12:20:30.929Z,21.72
2023-10-09T12:21:22.462Z,21.52
2023-10-09T12:22:22.478Z,21.58
2023-10-09T12:23:15.903Z,21.64
2023-10-09T12:24:12.875Z,21.70
2023-10-09T12:25:04.764Z,21.71
2023-10-09T12:25:59.145Z,21.72
2023-10-09T12:26:54.173Z,21.61
2023-10-09T12:27:45.684Z,21.62
2023-10-09T12:28:37.199Z,21.61
2023-10-09T12:29:31.166Z,21.67
2023-10-09T12:30:27.843Z,21.61
2023-10-09T12:31:22.516Z,21.67
2023-10-09T12:32:14.443Z,21.74
2023-10-09T12:33:08.527Z,21.75
2023-10-09T12:34:02.852Z,21.74
2023-10-09T12:34:54.747Z,21.80
2023-10-09T12:35:46.695Z,21.84
2023-10-09T12:36:38.738Z,21.90
2023-10-09T12:37:32.383Z,21.92
2023-10-09T12:38:28.762Z,21.83
2023-10-09T12:39:21.481Z,21.78
2023-10-09T12:40:12.893Z,21.75
2023-10-09T12:41:26.488Z,21.55
2023-10-09T12:42:18.514Z,21.54